Time,TemperatureF,DewpointF,PressureIn,WindDirection,WindDirectionDegrees,WindSpeedMPH,WindSpeedGustMPH,Humidity,HourlyPrecipIn,Conditions,Clouds,dailyrainin,SoftwareType,DateUTC
2013-02-21 00:00:00,23.3,12.2,30.34,NE,50,4.0,4.0,62,0.00,CLR,,0.00,WeatherDisplay:10.37,2013-02-21 05:00:00,
2013-02-21 00:01:00,23.2,12.1,30.34,NE,51,6.0,6.0,62,0.00,CLR,,0.00,WeatherDisplay:10.37,2013-02-21 05:01:00,
2013-02-21 00:03:00,23.2,12.1,30.34,NE,51,4.0,4.0,62,0.00,CLR,,0.00,WeatherDisplay:10.37,2013-02-21 05:03:00,
2013-02-21 00:08:00,23.1,12.0,30.34,NE,51,3.5,3.5,62,0.00,CLR,,0.00,WeatherDisplay:10.37,2013-02-21 05:08:00,
2013-02-21 00:13:00,23.0,12.3,30.34,NE,53,4.0,4.0,63,0.00,CLR,,0.00,WeatherDisplay:10.37,2013-02-21 05:13:00,
2013-02-21 00:18:00,22.9,12.2,30.33,NE,53,4.0,4.0,63,0.00,CLR,,0.00,WeatherDisplay:10.37,2013-02-21 05:18:00,
2013-02-21 00:23:00,22.9,12.2,30.33,NE,53,4.0,4.0,63,0.00,CLR,,0.00,WeatherDisplay:10.37,2013-02-21 05:23:00,
2013-02-21 00:28:00,22.8,12.1,30.33,NE,53,5.0,5.0,63,0.00,CLR,,0.00,WeatherDisplay:10.37,2013-02-21 05:28:00,
2013-02-21 00:33:00,22.7,12.0,30.33,NE,55,6.0,6.0,63,0.00,CLR,,0.00,WeatherDisplay:10.37,2013-02-21 05:33:00,
2013-02-21 00:38:00,22.6,11.9,30.34,NE,56,3.5,3.5,63,0.00,CLR,,0.00,WeatherDisplay:10.37,2013-02-21 05:38:00,
2013-02-21 00:43:00,22.6,11.9,30.34,ENE,57,3.5,3.5,63,0.00,CLR,,0.00,WeatherDisplay:10.37,2013-02-21 05:43:00,
2013-02-21 00:48:00,22.4,12.1,30.34,ENE,57,3.0,3.0,64,0.00,CLR,,0.00,WeatherDisplay:10.37,2013-02-21 05:48:00,
2013-02-21 00:53:00,22.3,12.0,30.34,ENE,58,4.0,4.0,64,0.00,CLR,,0.00,WeatherDisplay:10.37,2013-02-21 05:53:00,
2013-02-21 00:58:00,22.3,12.0,30.34,ENE,58,3.5,3.5,64,0.00,CLR,,0.00,WeatherDisplay:10.37,2013-02-21 05:58:00,
2013-02-21 01:03:00,22.2,11.9,30.35,ENE,58,3.5,3.5,64,0.00,CLR,,0.00,WeatherDisplay:10.37,2013-02-21 06:03:00,
2013-02-21 01:08:00,22.1,11.8,30.35,ENE,58,3.5,3.5,64,0.00,CLR,,0.00,WeatherDisplay:10.37,2013-02-21 06:08:00,
2013-02-21 01:13:00,22.0,11.7,30.35,ENE,58,2.3,2.3,64,0.00,CLR,,0.00,WeatherDisplay:10.37,2013-02-21 06:13:00,
2013-02-21 01:18:00,21.9,11.6,30.35,ENE,58,2.3,2.3,64,0.00,CLR,,0.00,WeatherDisplay:10.37,2013-02-21 06:18:00,
2013-02-21 01:23:00,21.8,11.8,30.35,ENE,58,3.5,3.5,65,0.00,CLR,,0.00,WeatherDisplay:10.37,2013-02-21 06:23:00,
2013-02-21 01:28:00,21.7,11.7,30.35,ENE,58,3.0,3.0,65,0.00,CLR,,0.00,WeatherDisplay:10.37,2013-02-21 06:28:00,
2013-02-21 01:33:00,21.6,11.6,30.35,ENE,58,2.3,2.3,65,0.00,CLR,,0.00,WeatherDisplay:10.37,2013-02-21 06:33:00,
2013-02-21 01:38:00,21.5,11.5,30.35,ENE,58,2.3,2.3,65,0.00,CLR,,0.00,WeatherDisplay:10.37,2013-02-21 06:38:00,
2013-02-21 01:43:00,21.4,11.8,30.35,ENE,58,0.0,0.0,66,0.00,CLR,,0.00,WeatherDisplay:10.37,2013-02-21 06:43:00,
2013-02-21 01:48:00,21.3,11.7,30.35,ENE,58,2.3,2.3,66,0.00,CLR,,0.00,WeatherDisplay:10.37,2013-02-21 06:48:00,
2013-02-21 01:53:00,21.2,11.6,30.36,ENE,58,3.5,3.5,66,0.00,CLR,,0.00,WeatherDisplay:10.37,2013-02-21 06:53:00,
2013-02-21 01:58:00,21.1,11.8,30.36,ENE,58,3.5,3.5,67,0.00,CLR,,0.00,WeatherDisplay:10.37,2013-02-21 06:58:00,
2013-02-21 02:03:00,21.0,11.8,30.35,ENE,58,2.3,2.3,67,0.00,CLR,,0.00,WeatherDisplay:10.37,2013-02-21 07:03:00,
2013-02-21 02:08:00,20.9,11.7,30.35,ENE,58,2.3,2.3,67,0.00,CLR,,0.00,WeatherDisplay:10.37,2013-02-21 07:08:00,
2013-02-21 02:13:00,20.9,11.7,30.36,ENE,58,3.5,3.5,67,0.00,CLR,,0.00,WeatherDisplay:10.37,2013-02-21 07:13:00,
2013-02-21 02:18:00,20.8,11.6,30.36,ENE,58,1.1,1.1,67,0.00,CLR,,0.00,WeatherDisplay:10.37,2013-02-21 07:18:00,
2013-02-21 02:23:00,20.7,11.5,30.36,ENE,58,2.3,2.3,67,0.00,CLR,,0.00,WeatherDisplay:10.37,2013-02-21 07:23:00,
2013-02-21 02:28:00,20.7,11.8,30.36,ENE,58,1.1,0.0,68,0.00,CLR,,0.00,WeatherDisplay:10.37,2013-02-21 07:28:00,
2013-02-21 02:33:00,20.6,11.7,30.36,ENE,58,1.1,1.1,68,0.00,CLR,,0.00,WeatherDisplay:10.37,2013-02-21 07:33:00,
2013-02-21 02:38:00,20.6,11.7,30.35,ENE,58,2.3,0.0,68,0.00,CLR,,0.00,WeatherDisplay:10.37,2013-02-21 07:38:00,
2013-02-21 02:43:00,20.4,11.5,30.35,ENE,58,1.0,1.0,68,0.00,CLR,,0.00,WeatherDisplay:10.37,2013-02-21 07:43:00,
2013-02-21 02:48:00,20.4,11.5,30.35,ENE,58,2.0,2.0,68,0.00,CLR,,0.00,WeatherDisplay:10.37,2013-02-21 07:48:00,
2013-02-21 02:53:00,20.3,11.4,30.35,ENE,58,3.5,3.5,68,0.00,CLR,,0.00,WeatherDisplay:10.37,2013-02-21 07:53:00,
2013-02-21 02:58:00,20.3,11.4,30.34,ENE,58,2.3,2.3,68,0.00,CLR,,0.00,WeatherDisplay:10.37,2013-02-21 07:58:00,
2013-02-21 03:03:00,20.3,11.7,30.34,ENE,58,2.3,2.3,69,0.00,CLR,,0.00,WeatherDisplay:10.37,2013-02-21 08:03:00,
2013-02-21 03:08:00,20.3,11.7,30.34,ENE,58,3.5,3.5,69,0.00,CLR,,0.00,WeatherDisplay:10.37,2013-02-21 08:08:00,
2013-02-21 03:13:00,20.2,11.7,30.34,ENE,58,2.3,2.3,69,0.00,CLR,,0.00,WeatherDisplay:10.37,2013-02-21 08:13:00,
2013-02-21 03:18:00,20.2,11.7,30.35,ENE,58,0.0,0.0,69,0.00,CLR,,0.00,WeatherDisplay:10.37,2013-02-21 08:18:00,
2013-02-21 03:23:00,20.2,11.7,30.35,ENE,58,0.0,0.0,69,0.00,CLR,,0.00,WeatherDisplay:10.37,2013-02-21 08:23:00,
2013-02-21 03:28:00,20.1,11.6,30.35,ENE,58,0.0,0.0,69,0.00,CLR,,0.00,WeatherDisplay:10.37,2013-02-21 08:28:00,
2013-02-21 03:33:00,20.1,11.6,30.35,ENE,58,2.3,2.3,69,0.00,CLR,,0.00,WeatherDisplay:10.37,2013-02-21 08:33:00,
2013-02-21 03:38:00,20.1,11.6,30.34,ENE,58,3.5,3.5,69,0.00,CLR,,0.00,WeatherDisplay:10.37,2013-02-21 08:38:00,
2013-02-21 03:43:00,20.0,11.5,30.34,ENE,58,1.0,0.0,69,0.00,CLR,,0.00,WeatherDisplay:10.37,2013-02-21 08:43:00,
2013-02-21 03:48:00,19.9,11.4,30.34,ENE,58,0.0,0.0,69,0.00,CLR,,0.00,WeatherDisplay:10.37,2013-02-21 08:48:00,
2013-02-21 03:53:00,19.7,11.2,30.34,ENE,58,0.0,0.0,69,0.00,CLR,,0.00,WeatherDisplay:10.37,2013-02-21 08:53:00,
2013-02-21 03:58:00,19.7,11.2,30.33,ENE,58,1.0,0.0,69,0.00,CLR,,0.00,WeatherDisplay:10.37,2013-02-21 08:58:00,
2013-02-21 04:03:00,19.7,11.5,30.33,ENE,58,1.0,1.0,70,0.00,CLR,,0.00,WeatherDisplay:10.37,2013-02-21 09:03:00,
2013-02-21 04:08:00,19.7,11.5,30.33,ENE,59,0.0,0.0,70,0.00,CLR,,0.00,WeatherDisplay:10.37,2013-02-21 09:08:00,
2013-02-21 04:13:00,19.5,11.3,30.32,ENE,58,1.1,1.1,70,0.00,CLR,,0.00,WeatherDisplay:10.37,2013-02-21 09:13:00,
2013-02-21 04:18:00,19.4,11.5,30.33,ENE,59,2.3,2.3,71,0.00,CLR,,0.00,WeatherDisplay:10.37,2013-02-21 09:18:00,
2013-02-21 04:23:00,19.4,11.5,30.33,ENE,58,1.0,1.0,71,0.00,CLR,,0.00,WeatherDisplay:10.37,2013-02-21 09:23:00,
2013-02-21 04:28:00,19.5,11.6,30.33,ENE,58,2.3,2.3,71,0.00,CLR,,0.00,WeatherDisplay:10.37,2013-02-21 09:28:00,
2013-02-21 04:33:00,19.5,11.6,30.34,ENE,59,3.5,3.5,71,0.00,CLR,,0.00,WeatherDisplay:10.37,2013-02-21 09:33:00,
2013-02-21 04:38:00,19.6,11.7,30.34,ENE,58,2.0,2.0,71,0.00,CLR,,0.00,WeatherDisplay:10.37,2013-02-21 09:38:00,
2013-02-21 04:43:00,19.5,11.6,30.34,ENE,59,2.0,2.0,71,0.00,CLR,,0.00,WeatherDisplay:10.37,2013-02-21 09:43:00,
2013-02-21 04:48:00,19.4,11.5,30.34,ENE,58,1.1,0.0,71,0.00,CLR,,0.00,WeatherDisplay:10.37,2013-02-21 09:48:00,
2013-02-21 04:53:00,19.2,11.3,30.34,ENE,71,6.0,6.0,71,0.00,CLR,,0.00,WeatherDisplay:10.37,2013-02-21 09:53:00,
2013-02-21 04:59:00,19.2,11.6,30.34,ENE,71,2.0,2.0,72,0.00,CLR,,0.00,WeatherDisplay:10.37,2013-02-21 09:59:00,
2013-02-21 05:04:00,19.1,11.6,30.34,ENE,71,0.0,0.0,72,0.00,CLR,,0.00,WeatherDisplay:10.37,2013-02-21 10:04:00,
2013-02-21 05:09:00,19.0,11.5,30.34,ENE,71,3.0,3.0,72,0.00,CLR,,0.00,WeatherDisplay:10.37,2013-02-21 10:09:00,
2013-02-21 05:14:00,19.0,11.5,30.35,ENE,71,2.3,2.3,72,0.00,CLR,,0.00,WeatherDisplay:10.37,2013-02-21 10:14:00,
2013-02-21 05:19:00,18.9,11.4,30.35,ENE,71,1.1,1.1,72,0.00,CLR,,0.00,WeatherDisplay:10.37,2013-02-21 10:19:00,
2013-02-21 05:24:00,18.9,11.7,30.35,ENE,71,0.0,0.0,73,0.00,CLR,,0.00,WeatherDisplay:10.37,2013-02-21 10:24:00,
2013-02-21 05:29:00,18.9,11.7,30.36,ENE,71,0.0,0.0,73,0.00,CLR,,0.00,WeatherDisplay:10.37,2013-02-21 10:29:00,
2013-02-21 05:34:00,18.8,11.6,30.36,ENE,71,1.1,1.1,73,0.00,CLR,,0.00,WeatherDisplay:10.37,2013-02-21 10:34:00,
2013-02-21 05:39:00,18.8,11.6,30.36,ENE,71,0.0,0.0,73,0.00,CLR,,0.00,WeatherDisplay:10.37,2013-02-21 10:39:00,
2013-02-21 05:44:00,18.6,11.4,30.37,ENE,71,2.0,2.0,73,0.00,CLR,,0.00,WeatherDisplay:10.37,2013-02-21 10:44:00,
2013-02-21 05:49:00,18.6,11.4,30.38,ENE,71,0.0,0.0,73,0.00,CLR,,0.00,WeatherDisplay:10.37,2013-02-21 10:49:00,
2013-02-21 05:54:00,18.6,11.4,30.37,ENE,71,0.0,0.0,73,0.00,CLR,,0.00,WeatherDisplay:10.37,2013-02-21 10:54:00,
2013-02-21 05:59:00,18.5,11.6,30.37,ENE,71,1.1,1.1,74,0.00,CLR,,0.00,WeatherDisplay:10.37,2013-02-21 10:59:00,
2013-02-21 06:04:00,18.5,11.6,30.37,ENE,71,2.3,2.3,74,0.00,CLR,,0.00,WeatherDisplay:10.37,2013-02-21 11:04:00,
2013-02-21 06:09:00,18.5,11.6,30.37,ENE,71,2.3,2.3,74,0.00,CLR,,0.00,WeatherDisplay:10.37,2013-02-21 11:09:00,
2013-02-21 06:14:00,18.4,11.5,30.37,ENE,72,3.5,3.5,74,0.00,CLR,,0.00,WeatherDisplay:10.37,2013-02-21 11:14:00,
2013-02-21 06:19:00,18.4,11.8,30.37,ENE,71,5.0,5.0,75,0.00,CLR,,0.00,WeatherDisplay:10.37,2013-02-21 11:19:00,
2013-02-21 06:24:00,18.3,11.7,30.37,ENE,72,4.6,4.6,75,0.00,CLR,,0.00,WeatherDisplay:10.37,2013-02-21 11:24:00,
2013-02-21 06:29:00,18.3,11.7,30.37,ENE,72,3.5,3.5,75,0.00,CLR,,0.00,WeatherDisplay:10.37,2013-02-21 11:29:00,
2013-02-21 06:34:00,18.3,11.7,30.37,ENE,73,0.0,0.0,75,0.00,CLR,,0.00,WeatherDisplay:10.37,2013-02-21 11:34:00,
2013-02-21 06:39:00,18.2,11.6,30.37,ENE,73,0.0,0.0,75,0.00,CLR,,0.00,WeatherDisplay:10.37,2013-02-21 11:39:00,
2013-02-21 06:44:00,18.1,11.5,30.36,ENE,73,2.0,2.0,75,0.00,CLR,,0.00,WeatherDisplay:10.37,2013-02-21 11:44:00,
2013-02-21 06:49:00,18.3,11.7,30.37,ENE,74,2.0,2.0,75,0.00,CLR,,0.00,WeatherDisplay:10.37,2013-02-21 11:49:00,
2013-02-21 06:54:00,18.4,11.8,30.36,East,83,3.5,3.5,75,0.00,CLR,,0.00,WeatherDisplay:10.37,2013-02-21 11:54:00,
2013-02-21 06:59:00,18.5,11.9,30.36,East,82,3.5,3.5,75,0.00,CLR,,0.00,WeatherDisplay:10.37,2013-02-21 11:59:00,
2013-02-21 07:04:00,18.5,11.9,30.36,ENE,75,3.5,3.5,75,0.00,CLR,,0.00,WeatherDisplay:10.37,2013-02-21 12:04:00,
2013-02-21 07:09:00,18.5,11.9,30.37,ENE,68,1.1,1.1,75,0.00,CLR,,0.00,WeatherDisplay:10.37,2013-02-21 12:09:00,
2013-02-21 07:14:00,18.5,11.9,30.38,ENE,68,2.3,2.3,75,0.00,CLR,,0.00,WeatherDisplay:10.37,2013-02-21 12:14:00,
2013-02-21 07:19:00,18.5,11.9,30.38,ENE,70,2.0,2.0,75,0.00,CLR,,0.00,WeatherDisplay:10.37,2013-02-21 12:19:00,
2013-02-21 07:24:00,18.5,11.9,30.38,ENE,76,1.1,1.1,75,0.00,CLR,,0.00,WeatherDisplay:10.37,2013-02-21 12:24:00,
2013-02-21 07:29:00,18.7,12.1,30.38,ENE,76,2.3,2.3,75,0.00,CLR,,0.00,WeatherDisplay:10.37,2013-02-21 12:29:00,
2013-02-21 07:34:00,18.7,12.1,30.38,ENE,72,3.0,3.0,75,0.00,CLR,,0.00,WeatherDisplay:10.37,2013-02-21 12:34:00,
2013-02-21 07:39:00,18.7,12.1,30.38,ENE,71,3.0,3.0,75,0.00,CLR,,0.00,WeatherDisplay:10.37,2013-02-21 12:39:00,
2013-02-21 07:44:00,18.7,12.1,30.38,ENE,71,3.5,3.5,75,0.00,CLR,,0.00,WeatherDisplay:10.37,2013-02-21 12:44:00,
2013-02-21 07:49:00,18.8,12.2,30.38,ENE,74,5.0,5.0,75,0.00,CLR,,0.00,WeatherDisplay:10.37,2013-02-21 12:49:00,
2013-02-21 07:54:00,18.9,12.3,30.38,SE,133,4.0,4.0,75,0.00,CLR,,0.00,WeatherDisplay:10.37,2013-02-21 12:54:00,
2013-02-21 07:59:00,19.0,12.1,30.38,NNW,347,3.5,3.5,74,0.00,CLR,,0.00,WeatherDisplay:10.37,2013-02-21 12:59:00,
2013-02-21 08:04:00,19.0,12.1,30.39,North,355,2.3,2.3,74,0.00,CLR,,0.00,WeatherDisplay:10.37,2013-02-21 13:04:00,
2013-02-21 08:09:00,19.2,12.3,30.39,North,2,3.5,3.5,74,0.00,CLR,,0.00,WeatherDisplay:10.37,2013-02-21 13:09:00,
2013-02-21 08:14:00,19.3,12.4,30.39,North,2,4.0,4.0,74,0.00,CLR,,0.00,WeatherDisplay:10.37,2013-02-21 13:14:00,
2013-02-21 08:19:00,19.5,12.3,30.38,NNW,330,2.3,2.3,73,0.00,CLR,,0.00,WeatherDisplay:10.37,2013-02-21 13:19:00,
2013-02-21 08:24:00,19.7,12.4,30.38,East,84,3.0,3.0,73,0.00,CLR,,0.00,WeatherDisplay:10.37,2013-02-21 13:24:00,
2013-02-21 08:29:00,19.8,12.5,30.39,East,80,2.3,2.3,73,0.00,CLR,,0.00,WeatherDisplay:10.37,2013-02-21 13:29:00,
2013-02-21 08:34:00,20.1,12.8,30.38,East,89,3.5,3.5,73,0.00,CLR,,0.00,WeatherDisplay:10.37,2013-02-21 13:34:00,
2013-02-21 08:39:00,20.4,12.8,30.39,ESE,113,1.1,1.1,72,0.00,CLR,,0.00,WeatherDisplay:10.37,2013-02-21 13:39:00,
2013-02-21 08:44:00,20.7,13.1,30.39,SE,135,1.1,1.1,72,0.00,CLR,,0.00,WeatherDisplay:10.37,2013-02-21 13:44:00,
2013-02-21 08:49:00,21.0,13.1,30.39,South,175,6.0,6.0,71,0.00,CLR,,0.00,WeatherDisplay:10.37,2013-02-21 13:49:00,
2013-02-21 08:54:00,21.2,13.3,30.39,SSE,153,2.3,2.3,71,0.00,CLR,,0.00,WeatherDisplay:10.37,2013-02-21 13:54:00,
2013-02-21 08:59:00,21.5,13.2,30.39,South,173,6.0,6.0,70,0.00,CLR,,0.00,WeatherDisplay:10.37,2013-02-21 13:59:00,
2013-02-21 09:04:00,21.7,13.4,30.39,South,170,4.0,4.0,70,0.00,CLR,,0.00,WeatherDisplay:10.37,2013-02-21 14:04:00,
2013-02-21 09:09:00,21.9,13.6,30.39,SSE,160,5.0,5.0,70,0.00,CLR,,0.00,WeatherDisplay:10.37,2013-02-21 14:09:00,
2013-02-21 09:14:00,22.2,13.9,30.39,SSE,155,2.3,2.3,70,0.00,CLR,,0.00,WeatherDisplay:10.37,2013-02-21 14:14:00,
2013-02-21 09:19:00,22.5,13.9,30.39,SSW,193,7.0,7.0,69,0.00,CLR,,0.00,WeatherDisplay:10.37,2013-02-21 14:19:00,
2013-02-21 09:24:00,22.6,13.6,30.39,SSE,162,6.0,6.0,68,0.00,CLR,,0.00,WeatherDisplay:10.37,2013-02-21 14:24:00,
2013-02-21 09:29:00,23.0,14.0,30.39,South,176,4.0,4.0,68,0.00,CLR,,0.00,WeatherDisplay:10.37,2013-02-21 14:29:00,
2013-02-21 09:34:00,23.5,14.1,30.39,SSW,195,4.6,4.6,67,0.00,CLR,,0.00,WeatherDisplay:10.37,2013-02-21 14:34:00,
2013-02-21 09:39:00,23.9,14.2,30.38,South,179,6.9,6.9,66,0.00,CLR,,0.00,WeatherDisplay:10.37,2013-02-21 14:39:00,
2013-02-21 09:44:00,24.4,14.7,30.38,South,175,4.0,4.0,66,0.00,CLR,,0.00,WeatherDisplay:10.37,2013-02-21 14:44:00,
2013-02-21 09:49:00,24.9,14.8,30.38,SSE,166,10.4,10.4,65,0.00,CLR,,0.00,WeatherDisplay:10.37,2013-02-21 14:49:00,
2013-02-21 09:54:00,25.0,14.5,30.38,South,184,4.6,4.6,64,0.00,CLR,,0.00,WeatherDisplay:10.37,2013-02-21 14:54:00,
2013-02-21 09:59:00,25.1,14.6,30.37,SW,229,5.0,5.0,64,0.00,CLR,,0.00,WeatherDisplay:10.37,2013-02-21 14:59:00,
2013-02-21 10:04:00,25.1,14.6,30.37,West,274,5.0,5.0,64,0.00,CLR,,0.00,WeatherDisplay:10.37,2013-02-21 15:04:00,
2013-02-21 10:09:00,25.1,14.6,30.37,West,267,4.0,4.0,64,0.00,CLR,,0.00,WeatherDisplay:10.37,2013-02-21 15:09:00,
2013-02-21 10:14:00,25.4,14.9,30.37,East,79,6.9,6.9,64,0.00,CLR,,0.00,WeatherDisplay:10.37,2013-02-21 15:14:00,
2013-02-21 10:19:00,25.6,15.1,30.37,SSE,164,6.0,6.0,64,0.00,CLR,,0.00,WeatherDisplay:10.37,2013-02-21 15:19:00,
2013-02-21 10:24:00,25.8,14.9,30.36,WSW,244,3.5,3.5,63,0.00,CLR,,0.00,WeatherDisplay:10.37,2013-02-21 15:24:00,
2013-02-21 10:29:00,26.2,15.3,30.36,NW,320,4.0,4.0,63,0.00,CLR,,0.00,WeatherDisplay:10.37,2013-02-21 15:29:00,
2013-02-21 10:34:00,26.2,15.3,30.35,ESE,115,6.9,6.9,63,0.00,CLR,,0.00,WeatherDisplay:10.37,2013-02-21 15:34:00,
2013-02-21 10:39:00,26.6,15.7,30.35,WSW,241,6.0,6.0,63,0.00,CLR,,0.00,WeatherDisplay:10.37,2013-02-21 15:39:00,
2013-02-21 10:44:00,27.2,15.9,30.34,SSW,194,4.6,4.6,62,0.00,CLR,,0.00,WeatherDisplay:10.37,2013-02-21 15:44:00,
2013-02-21 10:49:00,27.2,15.9,30.34,NE,36,8.0,8.0,62,0.00,CLR,,0.00,WeatherDisplay:10.37,2013-02-21 15:49:00,
2013-02-21 10:54:00,27.4,16.1,30.34,NNW,338,7.0,7.0,62,0.00,CLR,,0.00,WeatherDisplay:10.37,2013-02-21 15:54:00,
2013-02-21 10:59:00,27.6,15.9,30.34,NW,313,5.0,5.0,61,0.00,CLR,,0.00,WeatherDisplay:10.37,2013-02-21 15:59:00,
2013-02-21 11:04:00,27.6,15.9,30.33,West,278,5.8,5.8,61,0.00,CLR,,0.00,WeatherDisplay:10.37,2013-02-21 16:04:00,
2013-02-21 11:09:00,28.0,16.3,30.33,South,181,6.0,6.0,61,0.00,CLR,,0.00,WeatherDisplay:10.37,2013-02-21 16:09:00,
2013-02-21 11:14:00,28.6,16.8,30.33,SSW,196,8.1,8.1,61,0.00,CLR,,0.00,WeatherDisplay:10.37,2013-02-21 16:14:00,
2013-02-21 11:19:00,28.9,16.7,30.33,North,353,4.6,4.6,60,0.00,CLR,,0.00,WeatherDisplay:10.37,2013-02-21 16:19:00,
2013-02-21 11:24:00,29.1,16.9,30.33,WSW,244,5.0,5.0,60,0.00,CLR,,0.00,WeatherDisplay:10.37,2013-02-21 16:24:00,
2013-02-21 11:29:00,29.4,16.8,30.33,SW,220,4.0,4.0,59,0.00,CLR,,0.00,WeatherDisplay:10.37,2013-02-21 16:29:00,
2013-02-21 11:34:00,29.7,17.1,30.33,SW,219,3.5,3.5,59,0.00,CLR,,0.00,WeatherDisplay:10.37,2013-02-21 16:34:00,
2013-02-21 11:39:00,30.1,17.1,30.34,WSW,243,5.0,5.0,58,0.00,CLR,,0.00,WeatherDisplay:10.37,2013-02-21 16:39:00,
2013-02-21 11:44:00,30.2,16.8,30.34,South,191,2.3,2.3,57,0.00,CLR,,0.00,WeatherDisplay:10.37,2013-02-21 16:44:00,
2013-02-21 11:49:00,30.6,17.6,30.34,East,83,5.0,5.0,58,0.00,CLR,,0.00,WeatherDisplay:10.37,2013-02-21 16:49:00,
2013-02-21 11:54:00,30.8,17.3,30.33,NNW,328,5.0,5.0,57,0.00,CLR,,0.00,WeatherDisplay:10.37,2013-02-21 16:54:00,
2013-02-21 11:59:00,31.0,17.5,30.33,NNE,31,3.5,3.5,57,0.00,CLR,,0.00,WeatherDisplay:10.37,2013-02-21 16:59:00,
2013-02-21 12:04:00,30.8,17.3,30.33,NE,38,6.0,6.0,57,0.00,CLR,,0.00,WeatherDisplay:10.37,2013-02-21 17:04:00,
2013-02-21 12:09:00,31.0,17.9,30.33,ENE,58,6.0,6.0,58,0.00,CLR,,0.00,WeatherDisplay:10.37,2013-02-21 17:09:00,
2013-02-21 12:14:00,31.2,17.7,30.34,South,173,7.0,7.0,57,0.00,CLR,,0.00,WeatherDisplay:10.37,2013-02-21 17:14:00,
2013-02-21 12:19:00,32.2,18.7,30.33,ESE,106,4.6,4.6,57,0.00,CLR,,0.00,WeatherDisplay:10.37,2013-02-21 17:19:00,
2013-02-21 12:24:00,32.5,18.1,30.32,NW,306,2.3,2.3,55,0.00,CLR,,0.00,WeatherDisplay:10.37,2013-02-21 17:24:00,
2013-02-21 12:29:00,33.1,18.7,30.33,WSW,244,1.1,1.1,55,0.00,CLR,,0.00,WeatherDisplay:10.37,2013-02-21 17:29:00,
2013-02-21 12:34:00,33.6,18.7,30.33,WSW,239,3.5,3.5,54,0.00,CLR,,0.00,WeatherDisplay:10.37,2013-02-21 17:34:00,
2013-02-21 12:39:00,34.1,18.7,30.32,ENE,60,7.0,7.0,53,0.00,CLR,,0.00,WeatherDisplay:10.37,2013-02-21 17:39:00,
2013-02-21 12:44:00,33.8,18.9,30.31,SE,137,5.0,5.0,54,0.00,CLR,,0.00,WeatherDisplay:10.37,2013-02-21 17:44:00,
2013-02-21 12:49:00,34.0,18.6,30.31,ESE,103,6.0,6.0,53,0.00,CLR,,0.00,WeatherDisplay:10.37,2013-02-21 17:49:00,
2013-02-21 12:54:00,33.6,18.3,30.30,South,187,11.5,11.5,53,0.00,CLR,,0.00,WeatherDisplay:10.37,2013-02-21 17:54:00,
2013-02-21 12:59:00,33.4,18.5,30.29,NE,44,2.3,2.3,54,0.00,CLR,,0.00,WeatherDisplay:10.37,2013-02-21 17:59:00,
2013-02-21 13:04:00,34.1,18.7,30.29,NE,38,3.5,3.5,53,0.00,CLR,,0.00,WeatherDisplay:10.37,2013-02-21 18:04:00,
2013-02-21 13:09:00,34.2,18.8,30.28,SE,125,6.0,6.0,53,0.00,CLR,,0.00,WeatherDisplay:10.37,2013-02-21 18:09:00,
2013-02-21 13:14:00,34.9,19.5,30.28,SSW,196,6.0,6.0,53,0.00,CLR,,0.00,WeatherDisplay:10.37,2013-02-21 18:14:00,
2013-02-21 13:19:00,35.0,18.7,30.28,ENE,68,6.0,6.0,51,0.00,CLR,,0.00,WeatherDisplay:10.37,2013-02-21 18:19:00,
2013-02-21 13:24:00,34.5,18.7,30.26,South,187,6.9,6.9,52,0.00,CLR,,0.00,WeatherDisplay:10.37,2013-02-21 18:24:00,
2013-02-21 13:29:00,35.1,19.7,30.26,North,7,4.0,4.0,53,0.00,CLR,,0.00,WeatherDisplay:10.37,2013-02-21 18:29:00,
2013-02-21 13:34:00,35.7,19.8,30.27,NW,323,3.5,3.5,52,0.00,CLR,,0.00,WeatherDisplay:10.37,2013-02-21 18:34:00,
2013-02-21 13:39:00,35.9,19.5,30.28,ENE,74,7.0,7.0,51,0.00,CLR,,0.00,WeatherDisplay:10.37,2013-02-21 18:39:00,
2013-02-21 13:44:00,35.9,19.5,30.29,SE,135,5.0,5.0,51,0.00,CLR,,0.00,WeatherDisplay:10.37,2013-02-21 18:44:00,
2013-02-21 13:49:00,36.2,19.8,30.28,NE,44,3.5,3.5,51,0.00,CLR,,0.00,WeatherDisplay:10.37,2013-02-21 18:49:00,
2013-02-21 13:54:00,36.2,19.8,30.28,NNE,23,4.0,4.0,51,0.00,CLR,,0.00,WeatherDisplay:10.37,2013-02-21 18:54:00,
2013-02-21 13:59:00,36.2,19.8,30.27,WNW,301,11.5,11.5,51,0.00,CLR,,0.00,WeatherDisplay:10.37,2013-02-21 18:59:00,
2013-02-21 14:04:00,36.8,20.3,30.27,SSW,193,3.0,3.0,51,0.00,CLR,,0.00,WeatherDisplay:10.37,2013-02-21 19:04:00,
2013-02-21 14:09:00,37.3,20.3,30.27,SW,223,5.0,5.0,50,0.00,CLR,,0.00,WeatherDisplay:10.37,2013-02-21 19:09:00,
2013-02-21 14:14:00,37.2,19.8,30.27,SW,236,4.0,4.0,49,0.00,CLR,,0.00,WeatherDisplay:10.37,2013-02-21 19:14:00,
2013-02-21 14:19:00,36.8,19.9,30.27,SSW,201,4.6,4.6,50,0.00,CLR,,0.00,WeatherDisplay:10.37,2013-02-21 19:19:00,
2013-02-21 14:24:00,36.9,20.0,30.26,SE,126,7.0,7.0,50,0.00,CLR,,0.00,WeatherDisplay:10.37,2013-02-21 19:24:00,
2013-02-21 14:29:00,37.1,20.2,30.26,NW,306,4.0,4.0,50,0.00,CLR,,0.00,WeatherDisplay:10.37,2013-02-21 19:29:00,
2013-02-21 14:34:00,37.4,20.4,30.25,SSE,168,5.0,5.0,50,0.00,CLR,,0.00,WeatherDisplay:10.37,2013-02-21 19:34:00,
2013-02-21 14:39:00,37.5,20.5,30.24,West,259,5.0,5.0,50,0.00,CLR,,0.00,WeatherDisplay:10.37,2013-02-21 19:39:00,
2013-02-21 14:44:00,37.5,20.5,30.23,West,260,3.5,3.5,50,0.00,CLR,,0.00,WeatherDisplay:10.37,2013-02-21 19:44:00,
2013-02-21 14:49:00,37.5,20.5,30.23,WSW,239,4.0,4.0,50,0.00,CLR,,0.00,WeatherDisplay:10.37,2013-02-21 19:49:00,
2013-02-21 14:54:00,36.6,19.7,30.22,NW,313,6.9,6.9,50,0.00,CLR,,0.00,WeatherDisplay:10.37,2013-02-21 19:54:00,
2013-02-21 14:59:00,36.8,20.3,30.22,West,277,5.0,5.0,51,0.00,CLR,,0.00,WeatherDisplay:10.37,2013-02-21 19:59:00,
2013-02-21 15:04:00,37.0,20.1,30.22,WSW,257,5.0,5.0,50,0.00,CLR,,0.00,WeatherDisplay:10.37,2013-02-21 20:04:00,
2013-02-21 15:09:00,36.9,20.0,30.21,NW,321,7.0,7.0,50,0.00,CLR,,0.00,WeatherDisplay:10.37,2013-02-21 20:09:00,
2013-02-21 15:14:00,36.7,20.3,30.21,ESE,112,5.0,5.0,51,0.00,CLR,,0.00,WeatherDisplay:10.37,2013-02-21 20:14:00,
2013-02-21 15:19:00,36.9,20.4,30.21,WSW,251,4.0,4.0,51,0.00,CLR,,0.00,WeatherDisplay:10.37,2013-02-21 20:19:00,
2013-02-21 15:25:00,36.9,20.4,30.21,WSW,248,1.0,10.0,51,0.00,CLR,,0.00,WeatherDisplay:10.37,2013-02-21 20:25:00,
2013-02-21 15:30:00,37.1,20.6,30.20,SSE,164,6.0,6.0,51,0.00,CLR,,0.00,WeatherDisplay:10.37,2013-02-21 20:30:00,
2013-02-21 15:35:00,37.5,20.5,30.20,South,188,6.0,6.0,50,0.00,CLR,,0.00,WeatherDisplay:10.37,2013-02-21 20:35:00,
2013-02-21 15:40:00,37.6,20.6,30.19,SSE,166,7.0,7.0,50,0.00,CLR,,0.00,WeatherDisplay:10.37,2013-02-21 20:40:00,
2013-02-21 15:45:00,37.3,20.3,30.18,SW,224,5.8,5.8,50,0.00,CLR,,0.00,WeatherDisplay:10.37,2013-02-21 20:45:00,
2013-02-21 15:50:00,37.4,20.4,30.19,SSW,199,3.5,3.5,50,0.00,CLR,,0.00,WeatherDisplay:10.37,2013-02-21 20:50:00,
2013-02-21 15:55:00,37.1,20.2,30.18,ESE,120,8.1,8.1,50,0.00,CLR,,0.00,WeatherDisplay:10.37,2013-02-21 20:55:00,
2013-02-21 16:00:00,36.9,20.0,30.18,South,180,9.2,9.2,50,0.00,CLR,,0.00,WeatherDisplay:10.37,2013-02-21 21:00:00,
2013-02-21 16:05:00,36.9,20.0,30.18,South,183,2.3,2.3,50,0.00,CLR,,0.00,WeatherDisplay:10.37,2013-02-21 21:05:00,
2013-02-21 16:10:00,37.0,20.1,30.17,WSW,240,9.0,9.0,50,0.00,CLR,,0.00,WeatherDisplay:10.37,2013-02-21 21:10:00,
2013-02-21 16:15:00,36.7,19.8,30.17,North,355,3.5,3.5,50,0.00,CLR,,0.00,WeatherDisplay:10.37,2013-02-21 21:15:00,
2013-02-21 16:20:00,36.6,19.7,30.18,SE,133,8.1,8.1,50,0.00,CLR,,0.00,WeatherDisplay:10.37,2013-02-21 21:20:00,
2013-02-21 16:25:00,36.6,20.2,30.17,WSW,252,5.0,5.0,51,0.00,CLR,,0.00,WeatherDisplay:10.37,2013-02-21 21:25:00,
2013-02-21 16:30:00,36.6,19.7,30.17,East,93,6.0,6.0,50,0.00,CLR,,0.00,WeatherDisplay:10.37,2013-02-21 21:30:00,
2013-02-21 16:35:00,36.4,19.5,30.17,WNW,288,8.1,8.1,50,0.00,CLR,,0.00,WeatherDisplay:10.37,2013-02-21 21:35:00,
2013-02-21 16:40:00,36.2,19.3,30.17,South,182,10.4,10.4,50,0.00,CLR,,0.00,WeatherDisplay:10.37,2013-02-21 21:40:00,
2013-02-21 16:45:00,36.3,19.9,30.18,SW,218,4.6,4.6,51,0.00,CLR,,0.00,WeatherDisplay:10.37,2013-02-21 21:45:00,
2013-02-21 16:50:00,36.4,20.0,30.19,SSE,167,7.0,7.0,51,0.00,CLR,,0.00,WeatherDisplay:10.37,2013-02-21 21:50:00,
2013-02-21 16:55:00,36.4,19.5,30.19,SW,218,3.5,3.5,50,0.00,CLR,,0.00,WeatherDisplay:10.37,2013-02-21 21:55:00,
2013-02-21 17:00:00,36.4,19.5,30.19,North,7,2.3,2.3,50,0.00,CLR,,0.00,WeatherDisplay:10.37,2013-02-21 22:00:00,
2013-02-21 17:05:00,36.4,19.5,30.19,NW,321,3.5,3.5,50,0.00,CLR,,0.00,WeatherDisplay:10.37,2013-02-21 22:05:00,
2013-02-21 17:10:00,36.3,19.4,30.19,WNW,299,3.5,3.5,50,0.00,CLR,,0.00,WeatherDisplay:10.37,2013-02-21 22:10:00,
2013-02-21 17:15:00,36.4,20.0,30.19,West,277,5.0,5.0,51,0.00,CLR,,0.00,WeatherDisplay:10.37,2013-02-21 22:15:00,
2013-02-21 17:20:00,36.3,19.9,30.18,NW,324,5.0,5.0,51,0.00,CLR,,0.00,WeatherDisplay:10.37,2013-02-21 22:20:00,
2013-02-21 17:25:00,36.3,19.4,30.17,WNW,301,6.9,6.9,50,0.00,CLR,,0.00,WeatherDisplay:10.37,2013-02-21 22:25:00,
2013-02-21 17:30:00,36.2,19.8,30.16,SW,228,9.2,9.2,51,0.00,CLR,,0.00,WeatherDisplay:10.37,2013-02-21 22:30:00,
2013-02-21 17:35:00,36.1,19.7,30.16,WSW,256,4.0,4.0,51,0.00,CLR,,0.00,WeatherDisplay:10.37,2013-02-21 22:35:00,
2013-02-21 17:40:00,36.1,19.7,30.16,West,272,7.0,7.0,51,0.00,CLR,,0.00,WeatherDisplay:10.37,2013-02-21 22:40:00,
2013-02-21 17:45:00,36.1,19.2,30.16,NW,305,6.0,6.0,50,0.00,CLR,,0.00,WeatherDisplay:10.37,2013-02-21 22:45:00,
2013-02-21 17:50:00,36.2,19.3,30.17,WSW,255,4.6,4.6,50,0.00,CLR,,0.00,WeatherDisplay:10.37,2013-02-21 22:50:00,
2013-02-21 17:55:00,36.2,19.3,30.17,WSW,249,5.0,5.0,50,0.00,CLR,,0.00,WeatherDisplay:10.37,2013-02-21 22:55:00,
2013-02-21 18:00:00,36.2,19.8,30.17,WNW,301,3.5,3.5,51,0.00,CLR,,0.00,WeatherDisplay:10.37,2013-02-21 23:00:00,
2013-02-21 18:05:00,36.2,19.8,30.17,WSW,249,3.5,3.5,51,0.00,CLR,,0.00,WeatherDisplay:10.37,2013-02-21 23:05:00,
2013-02-21 18:10:00,36.2,19.8,30.17,ESE,109,6.0,6.0,51,0.00,CLR,,0.00,WeatherDisplay:10.37,2013-02-21 23:10:00,
2013-02-21 18:15:00,36.2,20.2,30.18,SW,220,6.0,6.0,52,0.00,CLR,,0.00,WeatherDisplay:10.37,2013-02-21 23:15:00,
2013-02-21 18:20:00,36.1,20.2,30.18,SW,232,5.8,5.8,52,0.00,CLR,,0.00,WeatherDisplay:10.37,2013-02-21 23:20:00,
2013-02-21 18:25:00,36.0,20.1,30.19,ESE,106,3.5,3.5,52,0.00,CLR,,0.00,WeatherDisplay:10.37,2013-02-21 23:25:00,
2013-02-21 18:30:00,36.0,20.1,30.18,ENE,67,4.0,4.0,52,0.00,CLR,,0.00,WeatherDisplay:10.37,2013-02-21 23:30:00,
2013-02-21 18:35:00,36.0,20.5,30.18,NNE,18,2.3,2.3,53,0.00,CLR,,0.00,WeatherDisplay:10.37,2013-02-21 23:35:00,
2013-02-21 18:40:00,35.8,20.3,30.18,NNW,333,7.0,7.0,53,0.00,CLR,,0.00,WeatherDisplay:10.37,2013-02-21 23:40:00,
2013-02-21 18:45:00,35.6,21.0,30.19,WNW,299,3.5,3.5,55,0.00,CLR,,0.00,WeatherDisplay:10.37,2013-02-21 23:45:00,
2013-02-21 18:50:00,35.5,20.9,30.20,WNW,301,4.0,4.0,55,0.00,CLR,,0.00,WeatherDisplay:10.37,2013-02-21 23:50:00,
2013-02-21 18:55:00,35.4,20.8,30.19,NW,317,3.0,3.0,55,0.00,CLR,,0.00,WeatherDisplay:10.37,2013-02-21 23:55:00,
2013-02-21 19:00:00,35.4,20.8,30.19,West,267,4.0,4.0,55,0.00,CLR,,0.00,WeatherDisplay:10.37,2013-02-22 00:00:00,
2013-02-21 19:05:00,35.3,20.7,30.19,SSW,202,3.5,3.5,55,0.00,-RA,,0.00,WeatherDisplay:10.37,2013-02-22 00:05:00,
2013-02-21 19:10:00,35.1,21.4,30.20,South,182,3.5,3.5,57,0.00,-RA,,0.00,WeatherDisplay:10.37,2013-02-22 00:10:00,
2013-02-21 19:15:00,35.1,21.8,30.21,South,170,5.0,5.0,58,0.00,-RA,,0.00,WeatherDisplay:10.37,2013-02-22 00:15:00,
2013-02-21 19:20:00,34.9,21.6,30.21,ENE,67,8.0,8.0,58,0.00,-RA,,0.00,WeatherDisplay:10.37,2013-02-22 00:20:00,
2013-02-21 19:25:00,34.8,21.5,30.22,ENE,63,5.0,5.0,58,0.00,-RA,,0.00,WeatherDisplay:10.37,2013-02-22 00:25:00,
2013-02-21 19:30:00,34.7,21.8,30.21,ENE,64,6.0,6.0,59,0.00,-RA,,0.00,WeatherDisplay:10.37,2013-02-22 00:30:00,
2013-02-21 19:35:00,34.6,21.7,30.22,ENE,58,4.0,4.0,59,0.00,-RA,,0.00,WeatherDisplay:10.37,2013-02-22 00:35:00,
2013-02-21 19:40:00,34.4,21.9,30.21,ENE,70,6.9,6.9,60,0.00,-RA,,0.00,WeatherDisplay:10.37,2013-02-22 00:40:00,
2013-02-21 19:45:00,34.4,22.3,30.22,ENE,72,5.0,5.0,61,0.00,-RA,,0.00,WeatherDisplay:10.37,2013-02-22 00:45:00,
2013-02-21 19:50:00,34.3,22.2,30.23,East,91,2.0,2.0,61,0.00,-RA,,0.00,WeatherDisplay:10.37,2013-02-22 00:50:00,
2013-02-21 19:55:00,34.1,22.0,30.23,ENE,70,7.0,7.0,61,0.00,-RA,,0.00,WeatherDisplay:10.37,2013-02-22 00:55:00,
2013-02-21 20:00:00,34.0,22.0,30.21,East,82,12.7,12.7,61,0.00,-RA,,0.00,WeatherDisplay:10.37,2013-02-22 01:00:00,
2013-02-21 20:05:00,33.9,22.2,30.22,East,101,4.0,4.0,62,0.00,-RA,,0.00,WeatherDisplay:10.37,2013-02-22 01:05:00,
2013-02-21 20:10:00,33.8,21.8,30.22,ENE,70,5.0,5.0,61,0.00,-RA,,0.00,WeatherDisplay:10.37,2013-02-22 01:10:00,
2013-02-21 20:15:00,33.7,21.7,30.21,North,352,5.0,5.0,61,0.00,-RA,,0.00,WeatherDisplay:10.37,2013-02-22 01:15:00,
2013-02-21 20:20:00,33.5,21.5,30.19,NE,52,21.0,21.0,61,0.00,-RA,,0.00,WeatherDisplay:10.37,2013-02-22 01:20:00,
2013-02-21 20:25:00,33.5,21.5,30.19,ENE,68,3.5,3.5,61,0.00,-RA,,0.00,WeatherDisplay:10.37,2013-02-22 01:25:00,
2013-02-21 20:30:00,33.4,21.4,30.19,NNE,31,4.0,4.0,61,0.00,-RA,,0.00,WeatherDisplay:10.37,2013-02-22 01:30:00,
2013-02-21 20:35:00,33.3,22.1,30.19,NNW,342,3.5,3.5,63,0.00,-RA,,0.00,WeatherDisplay:10.37,2013-02-22 01:35:00,
2013-02-21 20:40:00,33.0,22.1,30.19,ENE,78,3.5,3.5,64,0.00,-RA,,0.00,WeatherDisplay:10.37,2013-02-22 01:40:00,
2013-02-21 20:45:00,32.9,22.4,30.19,NNE,16,6.9,6.9,65,0.00,-RA,,0.00,WeatherDisplay:10.37,2013-02-22 01:45:00,
2013-02-21 20:50:00,32.7,22.6,30.20,South,183,8.0,8.0,66,0.00,-RA,,0.00,WeatherDisplay:10.37,2013-02-22 01:50:00,
2013-02-21 20:55:00,32.4,22.7,30.19,WSW,257,3.5,3.5,67,0.00,-RA,,0.00,WeatherDisplay:10.37,2013-02-22 01:55:00,
2013-02-21 21:00:00,32.3,22.6,30.18,SW,214,5.8,5.8,67,0.00,-RA,,0.00,WeatherDisplay:10.37,2013-02-22 02:00:00,
2013-02-21 21:05:00,32.3,22.6,30.16,SW,233,5.0,5.0,67,0.00,OVC,,0.00,WeatherDisplay:10.37,2013-02-22 02:05:00,
2013-02-21 21:10:00,32.3,22.6,30.16,SE,136,5.0,5.0,67,0.00,OVC,,0.00,WeatherDisplay:10.37,2013-02-22 02:10:00,
2013-02-21 21:15:00,32.2,22.8,30.18,SSE,167,6.9,6.9,68,0.00,OVC,,0.00,WeatherDisplay:10.37,2013-02-22 02:15:00,
2013-02-21 21:20:00,32.1,22.7,30.19,SE,137,4.6,4.6,68,0.00,OVC,,0.00,WeatherDisplay:10.37,2013-02-22 02:20:00,
2013-02-21 21:25:00,32.0,23.0,30.17,SW,220,4.0,4.0,69,0.00,OVC,,0.00,WeatherDisplay:10.37,2013-02-22 02:25:00,
2013-02-21 21:30:00,31.8,22.8,30.16,West,278,4.0,4.0,69,0.00,OVC,,0.00,WeatherDisplay:10.37,2013-02-22 02:30:00,
2013-02-21 21:35:00,31.6,23.3,30.16,South,188,7.0,7.0,71,0.00,OVC,,0.00,WeatherDisplay:10.37,2013-02-22 02:35:00,
2013-02-21 21:40:00,31.5,23.8,30.16,SW,220,5.0,5.0,73,0.01,RA,,0.01,WeatherDisplay:10.37,2013-02-22 02:40:00,
2013-02-21 21:45:00,31.4,24.1,30.16,SE,145,4.0,4.0,74,0.01,RA,,0.01,WeatherDisplay:10.37,2013-02-22 02:45:00,
2013-02-21 21:50:00,31.2,23.9,30.16,SSW,197,6.0,6.0,74,0.02,RA,,0.02,WeatherDisplay:10.37,2013-02-22 02:50:00,
2013-02-21 21:55:00,31.1,23.8,30.16,South,175,5.0,5.0,74,0.03,RA,,0.03,WeatherDisplay:10.37,2013-02-22 02:55:00,
2013-02-21 22:00:00,31.0,24.3,30.14,SSW,207,7.0,7.0,76,0.04,RA,,0.04,WeatherDisplay:10.37,2013-02-22 03:00:00,
2013-02-21 22:05:00,30.9,24.2,30.14,SSW,195,9.2,9.2,76,0.04,RA,,0.04,WeatherDisplay:10.37,2013-02-22 03:05:00,
2013-02-21 22:10:00,30.8,24.4,30.14,ESE,121,6.0,6.0,77,0.04,RA,,0.04,WeatherDisplay:10.37,2013-02-22 03:10:00,
2013-02-21 22:15:00,30.8,24.4,30.13,SSW,201,5.8,5.8,77,0.05,RA,,0.05,WeatherDisplay:10.37,2013-02-22 03:15:00,
2013-02-21 22:20:00,30.8,24.7,30.14,SSW,213,11.5,11.5,78,0.06,RA,,0.06,WeatherDisplay:10.37,2013-02-22 03:20:00,
2013-02-21 22:25:00,30.8,24.7,30.14,SSE,149,10.0,10.0,78,0.06,RA,,0.06,WeatherDisplay:10.37,2013-02-22 03:25:00,
2013-02-21 22:30:00,30.8,24.7,30.14,SSW,200,8.1,8.1,78,0.06,OVC,,0.06,WeatherDisplay:10.37,2013-02-22 03:30:00,
2013-02-21 22:35:00,30.8,25.1,30.13,South,175,5.0,5.0,79,0.07,RA,,0.07,WeatherDisplay:10.37,2013-02-22 03:35:00,
2013-02-21 22:40:00,30.9,25.2,30.12,NNW,328,6.0,6.0,79,0.07,RA,,0.08,WeatherDisplay:10.37,2013-02-22 03:40:00,
2013-02-21 22:45:00,30.9,25.2,30.11,North,2,0.0,0.0,79,0.08,RA,,0.09,WeatherDisplay:10.37,2013-02-22 03:45:00,
2013-02-21 22:50:00,30.8,25.1,30.11,SSE,162,0.0,0.0,79,0.07,RA,,0.09,WeatherDisplay:10.37,2013-02-22 03:50:00,
2013-02-21 22:55:00,30.9,25.5,30.11,South,185,0.0,0.0,80,0.08,RA,,0.11,WeatherDisplay:10.37,2013-02-22 03:55:00,
2013-02-21 23:00:00,30.8,25.4,30.10,ESE,102,0.0,0.0,80,0.08,RA,,0.11,WeatherDisplay:10.37,2013-02-22 04:00:00,
2013-02-21 23:05:00,30.8,25.4,30.10,SW,234,0.0,0.0,80,0.08,RA,,0.12,WeatherDisplay:10.37,2013-02-22 04:05:00,
2013-02-21 23:10:00,30.7,25.3,30.10,SSE,164,0.0,0.0,80,0.08,RA,,0.12,WeatherDisplay:10.37,2013-02-22 04:10:00,
2013-02-21 23:15:00,30.8,25.7,30.11,SE,125,0.0,0.0,81,0.07,OVC,,0.12,WeatherDisplay:10.37,2013-02-22 04:15:00,
2013-02-21 23:20:00,30.9,25.8,30.12,SSW,197,0.0,0.0,81,0.06,OVC,,0.12,WeatherDisplay:10.37,2013-02-22 04:20:00,
2013-02-21 23:25:00,31.0,25.9,30.15,South,173,0.0,0.0,81,0.06,OVC,,0.12,WeatherDisplay:10.37,2013-02-22 04:25:00,
2013-02-21 23:30:00,31.1,26.0,30.11,South,180,0.0,0.0,81,0.07,RA,,0.13,WeatherDisplay:10.37,2013-02-22 04:30:00,
2013-02-21 23:35:00,31.1,26.2,30.08,SSW,202,0.0,0.0,82,0.06,RA,,0.13,WeatherDisplay:10.37,2013-02-22 04:35:00,
2013-02-21 23:40:00,31.0,26.1,30.05,ESE,122,0.0,0.0,82,0.06,RA,,0.14,WeatherDisplay:10.37,2013-02-22 04:40:00,
2013-02-21 23:45:00,30.9,26.1,30.10,ESE,122,0.0,0.0,82,0.05,RA,,0.14,WeatherDisplay:10.37,2013-02-22 04:45:00,
2013-02-21 23:50:00,31.0,26.1,30.10,ESE,122,0.0,0.0,82,0.05,RA,,0.15,WeatherDisplay:10.37,2013-02-22 04:50:00,
2013-02-21 23:55:00,31.0,26.1,30.10,ESE,122,0.0,0.0,82,0.05,RA,,0.15,WeatherDisplay:10.37,2013-02-22 04:55:00,